Victoria, Texas
Current Conditions -  °F | °C
As of 3:51 AM on Saturday 29 Nov 2014 (Local Time) from KVCT Reporting Station
Moderate Fog Moderate Fog  
Wind Chill: 55°   Ceiling: 500
Heat Index: 55°   Visibility: 0.25mi
Dew Point: 54°   Wind: 5mph
Humidity: 96%   Direction: 190°S
Pressure: 30.09"   Gusts: NA
Location:  28.81°N, 97°W
Report Text: KVCT 290951Z AUTO 19004KT 1/4SM FG VV005 13/12 A3009 RMK AO2 SLP188 T01280122
Loading
Personal Weather Stations






























Interactive Weather Map New forecast layout! Learn more

10-Day Weather Forecast

Advertisements
Track Severe Weather on mobile